Time;durP1;ratioP1;P1;durP2;ratioP2;P2;SDS_P1;SDS_P2;PMS_P1;PMS_P2;Temp;Humidity;BMP_temperature;BMP_pressure;BME280_temperature;BME280_humidity;BME280_pressure;Samples;Min_cycle;Max_cycle;Signal;HPM_P1;HPM_P2
2021/05/01 00:00:12;;;;;;;;;;;5.90;99.90;;;;;;5092288;28;19908;-73
2021/05/01 00:02:37;;;;;;;;;;;5.90;99.90;;;;;;5091924;28;20280;-72
2021/05/01 00:05:03;;;;;;;;;;;5.80;99.90;;;;;;5092126;28;19912;-72
2021/05/01 00:07:28;;;;;;;;;;;5.80;99.90;;;;;;5091011;28;19908;-72
2021/05/01 00:09:54;;;;;;;;;;;5.70;99.90;;;;;;5091858;28;19916;-72
2021/05/01 00:12:19;;;;;;;;;;;5.70;99.90;;;;;;5090777;28;20006;-72
2021/05/01 00:14:45;;;;;;;;;;;5.60;99.90;;;;;;5091719;28;19955;-72
2021/05/01 00:17:11;;;;;;;;;;;5.60;99.90;;;;;;5088629;28;20361;-72
2021/05/01 00:19:36;;;;;;;;;;;5.60;99.90;;;;;;5091115;28;19908;-72
2021/05/01 00:22:01;;;;;;;;;;;5.60;99.90;;;;;;5091821;28;19908;-72
2021/05/01 00:24:27;;;;;;;;;;;5.50;99.90;;;;;;5091592;28;19912;-72
2021/05/01 00:26:52;;;;;;;;;;;5.40;99.90;;;;;;5090252;28;20506;-72
2021/05/01 00:29:18;;;;;;;;;;;5.30;99.90;;;;;;5091676;28;19908;-72
2021/05/01 00:31:43;;;;;;;;;;;5.30;99.90;;;;;;5091564;28;20392;-73
2021/05/01 00:34:09;;;;;;;;;;;5.30;99.90;;;;;;5091821;28;19908;-72
2021/05/01 00:36:34;;;;;;;;;;;5.30;99.90;;;;;;5090799;28;19962;-72
2021/05/01 00:39:00;;;;;;;;;;;5.30;99.90;;;;;;5089899;28;20341;-72
2021/05/01 00:41:26;;;;;;;;;;;5.20;99.90;;;;;;5091538;28;19916;-72
2021/05/01 00:43:51;;;;;;;;;;;5.20;99.90;;;;;;5091108;28;19959;-72
2021/05/01 00:46:17;;;;;;;;;;;5.10;99.90;;;;;;5090540;28;20426;-72
2021/05/01 00:48:42;;;;;;;;;;;5.10;99.90;;;;;;5093861;28;19907;-72
2021/05/01 00:51:08;;;;;;;;;;;5.10;99.90;;;;;;5095521;28;20410;-72
2021/05/01 00:53:33;;;;;;;;;;;5.00;99.90;;;;;;5090568;28;19958;-72
2021/05/01 00:55:59;;;;;;;;;;;5.00;99.90;;;;;;5090370;28;19912;-72
2021/05/01 00:58:25;;;;;;;;;;;5.10;99.90;;;;;;5091060;28;19911;-72
2021/05/01 01:01:17;;;;;;;;;;;5.10;99.90;;;;;;5090090;28;20314;-72
2021/05/01 01:03:43;;;;;;;;;;;5.10;99.90;;;;;;5091320;28;19908;-72
2021/05/01 01:06:08;;;;;;;;;;;5.10;99.90;;;;;;5089852;28;20004;-72
2021/05/01 01:08:34;;;;;;;;;;;5.10;99.90;;;;;;5091181;28;19953;-72
2021/05/01 01:11:00;;;;;;;;;;;5.10;99.90;;;;;;5091167;28;19953;-72
2021/05/01 01:13:25;;;;;;;;;;;5.20;99.90;;;;;;5090724;28;20408;-72
2021/05/01 01:15:51;;;;;;;;;;;5.20;99.90;;;;;;5090098;28;19913;-73
2021/05/01 01:18:16;;;;;;;;;;;5.20;99.90;;;;;;5083584;28;19919;-72
2021/05/01 01:20:43;;;;;;;;;;;5.10;99.90;;;;;;5090714;28;19909;-72
2021/05/01 01:23:08;;;;;;;;;;;5.10;99.90;;;;;;5090957;28;20292;-72
2021/05/01 01:25:34;;;;;;;;;;;5.20;99.90;;;;;;5090603;28;19912;-72
2021/05/01 01:28:00;;;;;;;;;;;5.20;99.90;;;;;;5090340;28;19912;-72
2021/05/01 01:30:29;;;;;;;;;;;5.20;99.90;;;;;;5091027;28;19919;-72
2021/05/01 01:32:55;;;;;;;;;;;5.30;99.90;;;;;;5091310;28;20029;-73
2021/05/01 01:35:21;;;;;;;;;;;5.30;99.90;;;;;;5090570;28;20415;-73
2021/05/01 01:37:47;;;;;;;;;;;5.30;99.90;;;;;;5089767;28;19916;-72
2021/05/01 01:40:14;;;;;;;;;;;5.30;99.90;;;;;;5090881;28;19909;-73
2021/05/01 01:42:41;;;;;;;;;;;5.40;99.90;;;;;;5090505;28;20354;-73
2021/05/01 01:45:07;;;;;;;;;;;5.40;99.90;;;;;;5090830;28;20393;-72
2021/05/01 01:47:32;;;;;;;;;;;5.40;99.90;;;;;;5085906;28;19909;-72
2021/05/01 01:49:58;;;;;;;;;;;5.40;99.90;;;;;;5090474;28;20428;-73
2021/05/01 01:52:23;;;;;;;;;;;5.50;99.90;;;;;;5090960;28;19914;-72
2021/05/01 01:54:49;;;;;;;;;;;5.50;99.90;;;;;;5090705;28;19908;-73
2021/05/01 01:57:14;;;;;;;;;;;5.50;99.90;;;;;;5089435;28;19912;-73
2021/05/01 01:59:40;;;;;;;;;;;5.60;99.90;;;;;;5090434;28;19951;-72
2021/05/01 02:02:06;;;;;;;;;;;5.60;99.90;;;;;;5090643;28;19919;-73
2021/05/01 02:04:31;;;;;;;;;;;5.60;99.90;;;;;;5090299;28;19912;-73
2021/05/01 02:06:57;;;;;;;;;;;5.70;99.90;;;;;;5093423;28;20365;-72
2021/05/01 02:09:22;;;;;;;;;;;5.70;99.90;;;;;;5094303;28;20364;-73
2021/05/01 02:11:48;;;;;;;;;;;5.80;99.90;;;;;;5094166;28;19930;-73
2021/05/01 02:14:13;;;;;;;;;;;5.80;99.90;;;;;;5093958;28;20391;-73
2021/05/01 02:16:38;;;;;;;;;;;5.80;99.90;;;;;;5093305;28;19983;-72
2021/05/01 02:19:04;;;;;;;;;;;5.90;99.90;;;;;;5090678;28;20014;-73
2021/05/01 02:21:30;;;;;;;;;;;5.90;99.90;;;;;;5093814;28;20377;-73
2021/05/01 02:23:55;;;;;;;;;;;5.90;99.90;;;;;;5092153;28;19912;-72
2021/05/01 02:26:21;;;;;;;;;;;6.00;99.90;;;;;;5093034;28;19912;-73
2021/05/01 02:28:46;;;;;;;;;;;6.00;99.90;;;;;;5093690;28;20345;-73
2021/05/01 02:31:12;;;;;;;;;;;6.00;99.90;;;;;;5093934;28;19912;-72
2021/05/01 02:33:38;;;;;;;;;;;6.10;99.90;;;;;;5093635;28;20340;-73
2021/05/01 02:36:04;;;;;;;;;;;6.10;99.90;;;;;;5092809;28;19912;-72
2021/05/01 02:38:29;;;;;;;;;;;6.10;99.90;;;;;;5093602;28;19916;-73
2021/05/01 02:40:55;;;;;;;;;;;6.20;99.90;;;;;;5093825;28;19908;-72
2021/05/01 02:43:20;;;;;;;;;;;6.20;99.90;;;;;;5093279;28;20353;-72
2021/05/01 02:45:46;;;;;;;;;;;6.20;99.90;;;;;;5092317;28;19916;-71
2021/05/01 02:48:11;;;;;;;;;;;6.20;99.90;;;;;;5090310;28;19915;-71
2021/05/01 02:50:37;;;;;;;;;;;6.20;99.90;;;;;;5093309;28;20281;-71
2021/05/01 02:53:04;;;;;;;;;;;6.20;99.90;;;;;;5093412;28;19999;-72
2021/05/01 02:55:30;;;;;;;;;;;6.10;99.90;;;;;;5092218;28;19912;-71
2021/05/01 02:57:56;;;;;;;;;;;6.10;99.90;;;;;;5092035;28;19912;-71
2021/05/01 03:00:22;;;;;;;;;;;6.10;99.90;;;;;;5093463;28;19916;-71
2021/05/01 03:02:48;;;;;;;;;;;6.10;99.90;;;;;;5092876;28;19908;-72
2021/05/01 03:05:14;;;;;;;;;;;6.10;99.90;;;;;;5092983;28;20383;-71
2021/05/01 03:07:40;;;;;;;;;;;6.00;99.90;;;;;;5091947;28;20384;-71
2021/05/01 03:10:06;;;;;;;;;;;6.00;99.90;;;;;;5092884;28;19923;-72
2021/05/01 03:12:32;;;;;;;;;;;6.00;99.90;;;;;;5092674;28;19931;-71
2021/05/01 03:14:57;;;;;;;;;;;6.00;99.90;;;;;;5092859;28;20353;-71
2021/05/01 03:17:23;;;;;;;;;;;6.00;99.90;;;;;;5088086;28;19954;-71
2021/05/01 03:19:49;;;;;;;;;;;5.90;99.90;;;;;;5092614;28;19922;-71
2021/05/01 03:22:14;;;;;;;;;;;5.90;99.90;;;;;;5092989;28;19966;-70
2021/05/01 03:24:41;;;;;;;;;;;5.90;99.90;;;;;;5092982;28;19912;-70
2021/05/01 03:27:07;;;;;;;;;;;5.90;99.90;;;;;;5091711;28;19908;-70
2021/05/01 03:29:32;;;;;;;;;;;5.90;99.90;;;;;;5092304;28;19974;-71
2021/05/01 03:31:58;;;;;;;;;;;5.90;99.90;;;;;;5092476;28;19914;-71
2021/05/01 03:34:23;;;;;;;;;;;5.90;99.90;;;;;;5092428;28;20010;-70
2021/05/01 03:36:49;;;;;;;;;;;5.90;99.90;;;;;;5091534;28;20007;-71
2021/05/01 03:39:16;;;;;;;;;;;5.80;99.90;;;;;;5091429;28;19913;-70
2021/05/01 03:41:42;;;;;;;;;;;5.80;99.90;;;;;;5092480;28;19908;-70
2021/05/01 03:44:07;;;;;;;;;;;5.90;99.90;;;;;;5092113;28;19916;-70
2021/05/01 03:46:34;;;;;;;;;;;5.90;99.90;;;;;;5091046;28;19912;-70
2021/05/01 03:48:59;;;;;;;;;;;5.90;99.90;;;;;;5088540;28;19908;-70
2021/05/01 03:51:25;;;;;;;;;;;5.90;99.90;;;;;;5086195;28;19915;-70
2021/05/01 03:53:50;;;;;;;;;;;5.90;99.90;;;;;;5092002;28;20001;-71
2021/05/01 03:56:16;;;;;;;;;;;5.90;99.90;;;;;;5091241;28;20383;-70
2021/05/01 03:58:42;;;;;;;;;;;5.90;99.90;;;;;;5091825;28;19908;-71
2021/05/01 04:01:07;;;;;;;;;;;5.90;99.90;;;;;;5091955;28;20188;-71
2021/05/01 04:03:33;;;;;;;;;;;5.90;99.90;;;;;;5092098;28;19912;-70
2021/05/01 04:05:59;;;;;;;;;;;5.90;99.90;;;;;;5091131;28;20008;-70
2021/05/01 04:08:24;;;;;;;;;;;5.90;99.90;;;;;;5091709;28;19914;-71
2021/05/01 04:10:50;;;;;;;;;;;5.90;99.90;;;;;;5091900;28;20300;-71
2021/05/01 04:13:15;;;;;;;;;;;6.00;99.90;;;;;;5091515;28;19912;-70
2021/05/01 04:15:41;;;;;;;;;;;6.00;99.90;;;;;;5090715;28;20331;-71
2021/05/01 04:18:11;;;;;;;;;;;6.10;99.90;;;;;;5091651;28;19919;-71
2021/05/01 04:20:36;;;;;;;;;;;6.10;99.90;;;;;;5086973;28;20001;-71
2021/05/01 04:23:02;;;;;;;;;;;6.10;99.90;;;;;;5091418;28;20365;-71
2021/05/01 04:25:27;;;;;;;;;;;6.10;99.90;;;;;;5091709;28;19919;-70
2021/05/01 04:27:52;;;;;;;;;;;6.20;99.90;;;;;;5090283;28;19923;-71
2021/05/01 04:30:18;;;;;;;;;;;6.20;99.90;;;;;;5090693;28;19915;-70
2021/05/01 04:32:44;;;;;;;;;;;6.20;99.90;;;;;;5091431;28;19916;-71
2021/05/01 04:35:10;;;;;;;;;;;6.30;99.90;;;;;;5091411;28;19908;-70
2021/05/01 04:37:35;;;;;;;;;;;6.30;99.90;;;;;;5090337;28;19970;-70
2021/05/01 04:40:01;;;;;;;;;;;6.30;99.90;;;;;;5091530;28;19912;-71
2021/05/01 04:42:26;;;;;;;;;;;6.40;99.90;;;;;;5091170;28;19940;-71
2021/05/01 04:44:52;;;;;;;;;;;6.40;99.90;;;;;;5090978;28;20369;-71
2021/05/01 04:47:17;;;;;;;;;;;6.40;99.90;;;;;;5090367;28;19962;-71
2021/05/01 04:49:43;;;;;;;;;;;6.40;99.90;;;;;;5091257;28;19908;-70
2021/05/01 04:52:09;;;;;;;;;;;6.40;99.90;;;;;;5086684;28;19908;-71
2021/05/01 04:54:34;;;;;;;;;;;6.40;99.90;;;;;;5091081;28;19908;-71
2021/05/01 04:57:00;;;;;;;;;;;6.40;99.90;;;;;;5089869;28;19908;-71
2021/05/01 04:59:25;;;;;;;;;;;6.40;99.90;;;;;;5090673;28;19912;-71
2021/05/01 05:01:51;;;;;;;;;;;6.40;99.90;;;;;;5091280;28;19908;-71
2021/05/01 05:04:16;;;;;;;;;;;6.50;99.90;;;;;;5091257;28;20012;-71
2021/05/01 05:06:42;;;;;;;;;;;6.50;99.90;;;;;;5090414;28;19913;-71
2021/05/01 05:09:07;;;;;;;;;;;6.60;99.90;;;;;;5090795;28;19931;-71
2021/05/01 05:11:33;;;;;;;;;;;6.60;99.90;;;;;;5091199;28;19908;-70
2021/05/01 05:13:59;;;;;;;;;;;6.60;99.90;;;;;;5090425;28;19908;-71
2021/05/01 05:16:25;;;;;;;;;;;6.60;99.90;;;;;;5090526;28;19987;-70
2021/05/01 05:18:50;;;;;;;;;;;6.60;99.90;;;;;;5089468;28;19940;-71
2021/05/01 05:21:16;;;;;;;;;;;6.70;99.90;;;;;;5086049;28;19920;-70
2021/05/01 05:23:41;;;;;;;;;;;6.70;99.90;;;;;;5090868;28;20285;-71
2021/05/01 05:26:07;;;;;;;;;;;6.70;99.90;;;;;;5089905;28;19913;-71
2021/05/01 05:28:32;;;;;;;;;;;6.70;99.90;;;;;;5090517;28;19970;-71
2021/05/01 05:30:58;;;;;;;;;;;6.70;99.90;;;;;;5091140;28;20408;-71
2021/05/01 05:33:23;;;;;;;;;;;6.70;99.90;;;;;;5090812;28;19908;-70
2021/05/01 05:35:49;;;;;;;;;;;6.70;99.90;;;;;;5089966;28;19908;-71
2021/05/01 05:38:14;;;;;;;;;;;6.70;99.90;;;;;;5090535;28;20011;-71
2021/05/01 05:40:41;;;;;;;;;;;6.70;99.90;;;;;;5092589;28;19931;-71
2021/05/01 05:43:07;;;;;;;;;;;6.70;99.90;;;;;;5094193;28;19995;-71
2021/05/01 05:45:33;;;;;;;;;;;6.70;99.90;;;;;;5092930;28;19919;-71
2021/05/01 05:47:59;;;;;;;;;;;6.70;99.90;;;;;;5094059;28;19908;-71
2021/05/01 05:50:24;;;;;;;;;;;6.70;99.90;;;;;;5089865;28;20047;-71
2021/05/01 05:52:50;;;;;;;;;;;6.70;99.90;;;;;;5094357;28;19915;-71
2021/05/01 05:55:15;;;;;;;;;;;6.60;99.90;;;;;;5094456;28;19955;-71
2021/05/01 05:57:47;;;;;;;;;;;6.70;99.90;;;;;;5093247;28;19912;-71
2021/05/01 06:00:12;;;;;;;;;;;6.70;99.90;;;;;;5094445;28;19979;-71
2021/05/01 06:02:41;;;;;;;;;;;6.70;99.90;;;;;;5094298;28;20006;-71
2021/05/01 06:05:08;;;;;;;;;;;6.70;99.90;;;;;;5094192;28;19912;-71
2021/05/01 06:07:40;;;;;;;;;;;6.80;99.90;;;;;;5093202;28;19909;-71
2021/05/01 06:10:07;;;;;;;;;;;6.80;99.90;;;;;;5094255;28;19912;-71
2021/05/01 06:12:34;;;;;;;;;;;6.80;99.90;;;;;;5093964;28;20269;-71
2021/05/01 06:15:01;;;;;;;;;;;6.80;99.90;;;;;;5093890;28;19909;-71
2021/05/01 06:17:27;;;;;;;;;;;6.90;99.90;;;;;;5092890;28;19943;-71
2021/05/01 06:19:53;;;;;;;;;;;7.00;99.90;;;;;;5091211;28;19963;-71
2021/05/01 06:22:19;;;;;;;;;;;7.10;99.90;;;;;;5090776;28;20430;-71
2021/05/01 06:24:44;;;;;;;;;;;7.20;99.90;;;;;;5090763;28;20193;-71
2021/05/01 06:27:10;;;;;;;;;;;7.20;99.90;;;;;;5092731;28;19912;-71
2021/05/01 06:29:37;;;;;;;;;;;7.20;99.90;;;;;;5093488;28;20389;-71
2021/05/01 06:32:05;;;;;;;;;;;7.20;99.90;;;;;;5081894;28;19908;-71
2021/05/01 06:34:31;;;;;;;;;;;7.20;99.90;;;;;;5083365;28;19926;-71
2021/05/01 06:36:56;;;;;;;;;;;7.10;99.90;;;;;;5082645;28;19913;-71
2021/05/01 06:39:24;;;;;;;;;;;7.10;99.90;;;;;;5082008;28;19915;-71
2021/05/01 06:41:56;;;;;;;;;;;7.10;99.90;;;;;;5083108;28;19912;-71
2021/05/01 06:44:40;;;;;;;;;;;7.00;99.90;;;;;;5083843;28;20254;-71
2021/05/01 06:47:06;;;;;;;;;;;7.00;99.90;;;;;;5081154;28;19909;-71
2021/05/01 06:49:43;;;;;;;;;;;7.00;99.90;;;;;;5081700;28;19908;-71
2021/05/01 06:52:09;;;;;;;;;;;7.10;99.90;;;;;;5084050;28;19912;-71
2021/05/01 06:54:35;;;;;;;;;;;7.20;99.90;;;;;;5084545;28;20014;-71
2021/05/01 06:57:01;;;;;;;;;;;7.30;99.90;;;;;;5080121;28;20006;-71
2021/05/01 06:59:26;;;;;;;;;;;7.40;99.90;;;;;;5083244;28;19999;-71
2021/05/01 07:01:52;;;;;;;;;;;7.50;99.90;;;;;;5082682;28;19955;-71
2021/05/01 07:04:18;;;;;;;;;;;7.40;99.90;;;;;;5073456;28;19908;-71
2021/05/01 07:06:44;;;;;;;;;;;7.50;99.90;;;;;;5071665;28;19919;-71
2021/05/01 07:09:10;;;;;;;;;;;7.50;99.90;;;;;;5072604;28;19915;-72
2021/05/01 07:11:35;;;;;;;;;;;7.50;99.90;;;;;;5072799;28;20285;-71
2021/05/01 07:14:01;;;;;;;;;;;7.50;99.90;;;;;;5072304;28;19958;-71
2021/05/01 07:16:28;;;;;;;;;;;7.50;99.90;;;;;;5071665;28;19915;-71
2021/05/01 07:18:54;;;;;;;;;;;7.60;99.90;;;;;;5072775;28;20315;-71
2021/05/01 07:21:20;;;;;;;;;;;7.60;99.90;;;;;;5081532;28;19916;-71
2021/05/01 07:23:45;;;;;;;;;;;7.70;99.90;;;;;;5092910;28;19918;-71
2021/05/01 07:26:17;;;;;;;;;;;7.80;99.90;;;;;;5091433;28;19913;-71
2021/05/01 07:28:45;;;;;;;;;;;7.80;99.90;;;;;;5092563;28;19915;-71
2021/05/01 07:31:12;;;;;;;;;;;7.80;99.90;;;;;;5092755;28;19960;-71
2021/05/01 07:33:57;;;;;;;;;;;7.80;99.90;;;;;;5092614;28;20281;-71
2021/05/01 07:36:39;;;;;;;;;;;7.90;99.90;;;;;;5091369;28;19986;-71
2021/05/01 07:39:06;;;;;;;;;;;7.90;99.90;;;;;;5092610;28;20319;-71
2021/05/01 07:41:32;;;;;;;;;;;8.00;99.90;;;;;;5092497;28;19908;-71
2021/05/01 07:43:58;;;;;;;;;;;8.00;99.90;;;;;;5092182;28;19954;-71
2021/05/01 07:46:25;;;;;;;;;;;8.00;99.90;;;;;;5089732;28;19923;-71
2021/05/01 07:48:51;;;;;;;;;;;8.00;99.90;;;;;;5092350;28;20121;-71
2021/05/01 07:51:17;;;;;;;;;;;8.00;99.90;;;;;;5096187;28;19908;-71
2021/05/01 07:53:43;;;;;;;;;;;8.00;99.90;;;;;;5112518;28;19990;-71
2021/05/01 07:56:10;;;;;;;;;;;8.00;99.90;;;;;;5111497;28;19908;-71
2021/05/01 07:58:36;;;;;;;;;;;7.90;99.90;;;;;;5111890;28;19925;-71
2021/05/01 08:01:01;;;;;;;;;;;8.00;99.90;;;;;;5112326;28;19978;-72
2021/05/01 08:03:27;;;;;;;;;;;8.00;99.90;;;;;;5112141;28;19908;-70
2021/05/01 08:05:52;;;;;;;;;;;8.10;99.90;;;;;;5111276;28;19926;-71
2021/05/01 08:08:18;;;;;;;;;;;8.10;99.90;;;;;;5110930;28;20261;-71
2021/05/01 08:10:43;;;;;;;;;;;8.20;99.90;;;;;;5112148;28;19908;-71
2021/05/01 08:13:09;;;;;;;;;;;8.20;99.90;;;;;;5111825;28;19914;-71
2021/05/01 08:15:35;;;;;;;;;;;8.10;99.90;;;;;;5111412;28;19911;-71
2021/05/01 08:18:01;;;;;;;;;;;8.10;99.90;;;;;;5111790;28;20335;-71
2021/05/01 08:20:28;;;;;;;;;;;8.00;99.90;;;;;;5101158;28;20007;-71
2021/05/01 08:22:54;;;;;;;;;;;8.10;99.90;;;;;;5091434;28;20029;-71
2021/05/01 08:25:19;;;;;;;;;;;8.10;99.90;;;;;;5091468;28;19949;-71
2021/05/01 08:27:45;;;;;;;;;;;8.10;99.90;;;;;;5090443;28;19908;-70
2021/05/01 08:30:11;;;;;;;;;;;8.10;99.90;;;;;;5091294;28;20505;-71
2021/05/01 08:32:37;;;;;;;;;;;8.10;99.90;;;;;;5091290;28;19923;-71
2021/05/01 08:35:02;;;;;;;;;;;8.20;99.90;;;;;;5091511;28;20411;-70
2021/05/01 08:37:28;;;;;;;;;;;8.20;99.90;;;;;;5090268;28;19920;-70
2021/05/01 08:39:53;;;;;;;;;;;8.20;99.90;;;;;;5091340;28;19919;-71
2021/05/01 08:42:19;;;;;;;;;;;8.20;99.90;;;;;;5091257;28;20479;-71
2021/05/01 08:44:44;;;;;;;;;;;8.00;99.90;;;;;;5090671;28;20049;-71
2021/05/01 08:47:10;;;;;;;;;;;7.90;99.90;;;;;;5090286;28;19991;-71
2021/05/01 08:49:36;;;;;;;;;;;7.80;99.90;;;;;;5090659;28;19965;-71
2021/05/01 08:52:01;;;;;;;;;;;7.90;99.90;;;;;;5086440;28;19908;-71
2021/05/01 08:54:27;;;;;;;;;;;7.80;99.90;;;;;;5089838;28;20015;-71
2021/05/01 08:56:53;;;;;;;;;;;7.90;99.90;;;;;;5089875;28;19912;-71
2021/05/01 08:59:18;;;;;;;;;;;7.90;99.90;;;;;;5090729;28;19918;-71
2021/05/01 09:01:48;;;;;;;;;;;7.80;99.90;;;;;;5091118;28;20008;-71
2021/05/01 09:04:13;;;;;;;;;;;7.80;99.90;;;;;;5091192;28;19978;-71
2021/05/01 09:06:39;;;;;;;;;;;7.90;99.90;;;;;;5089769;28;20349;-71
2021/05/01 09:09:06;;;;;;;;;;;7.90;99.90;;;;;;5091073;28;19908;-71
2021/05/01 09:11:32;;;;;;;;;;;7.80;99.90;;;;;;5091563;28;19983;-70
2021/05/01 09:13:57;;;;;;;;;;;7.80;99.90;;;;;;5091294;28;19944;-71
2021/05/01 09:16:23;;;;;;;;;;;7.90;99.90;;;;;;5092017;28;20015;-71
2021/05/01 09:18:56;;;;;;;;;;;8.00;99.90;;;;;;5094986;28;19909;-71
2021/05/01 09:21:26;;;;;;;;;;;8.10;99.90;;;;;;5090267;28;20010;-71
2021/05/01 09:23:52;;;;;;;;;;;8.10;99.90;;;;;;5094886;28;19908;-72
2021/05/01 09:26:20;;;;;;;;;;;8.10;99.90;;;;;;5093875;28;19947;-71
2021/05/01 09:28:49;;;;;;;;;;;8.20;99.90;;;;;;5094608;28;19912;-72
2021/05/01 09:31:19;;;;;;;;;;;8.10;99.90;;;;;;5094799;28;19920;-71
2021/05/01 09:33:49;;;;;;;;;;;8.10;99.90;;;;;;5094803;28;19922;-71
2021/05/01 09:36:16;;;;;;;;;;;8.10;99.90;;;;;;5093970;28;20380;-71
2021/05/01 09:38:42;;;;;;;;;;;8.10;99.90;;;;;;5094566;28;19931;-71
2021/05/01 09:41:15;;;;;;;;;;;8.20;99.90;;;;;;5094847;28;20330;-71
2021/05/01 09:43:53;;;;;;;;;;;8.20;99.90;;;;;;5094474;28;19909;-71
2021/05/01 09:46:18;;;;;;;;;;;8.30;99.90;;;;;;5094044;28;19919;-71
2021/05/01 09:48:44;;;;;;;;;;;8.40;99.90;;;;;;5094597;28;19908;-71
2021/05/01 09:51:09;;;;;;;;;;;8.50;99.90;;;;;;5089600;28;20388;-71
2021/05/01 09:53:38;;;;;;;;;;;8.80;99.90;;;;;;5094066;28;19955;-71
2021/05/01 09:56:05;;;;;;;;;;;9.00;99.90;;;;;;5093573;28;19908;-71
2021/05/01 09:58:31;;;;;;;;;;;9.30;99.90;;;;;;5094099;28;19909;-71
2021/05/01 10:01:12;;;;;;;;;;;9.40;99.90;;;;;;5094851;28;19919;-71
2021/05/01 10:03:38;;;;;;;;;;;9.50;99.90;;;;;;5094128;28;19909;-71
2021/05/01 10:06:05;;;;;;;;;;;9.60;99.90;;;;;;5093642;28;19923;-71
2021/05/01 10:08:31;;;;;;;;;;;9.70;99.90;;;;;;5094756;28;19915;-71
2021/05/01 10:10:57;;;;;;;;;;;9.80;99.90;;;;;;5094561;28;19912;-71
2021/05/01 10:13:23;;;;;;;;;;;9.80;99.90;;;;;;5094185;28;19915;-71
2021/05/01 10:15:49;;;;;;;;;;;9.70;99.90;;;;;;5092759;28;19908;-71
2021/05/01 10:18:20;;;;;;;;;;;9.70;99.90;;;;;;5093904;28;20318;-71
2021/05/01 10:20:47;;;;;;;;;;;9.80;99.90;;;;;;5089370;28;19993;-71
2021/05/01 10:23:14;;;;;;;;;;;9.90;99.90;;;;;;5093688;28;19908;-71
2021/05/01 10:25:40;;;;;;;;;;;9.80;99.90;;;;;;5092701;28;20414;-71
2021/05/01 10:28:11;;;;;;;;;;;9.80;99.90;;;;;;5092635;28;19908;-71
2021/05/01 10:30:42;;;;;;;;;;;9.90;99.90;;;;;;5093535;28;19912;-71
2021/05/01 10:33:13;;;;;;;;;;;10.00;99.90;;;;;;5093788;28;19912;-71
2021/05/01 10:35:47;;;;;;;;;;;10.10;99.90;;;;;;5092813;28;20376;-72
2021/05/01 10:38:16;;;;;;;;;;;10.10;99.90;;;;;;5093875;28;20007;-71
2021/05/01 10:40:44;;;;;;;;;;;10.00;99.90;;;;;;5093647;28;20323;-71
2021/05/01 10:43:11;;;;;;;;;;;9.90;99.90;;;;;;5093481;28;19977;-71
2021/05/01 10:45:37;;;;;;;;;;;9.90;99.90;;;;;;5092413;28;20365;-71
2021/05/01 10:48:03;;;;;;;;;;;9.90;99.90;;;;;;5093324;28;19916;-71
2021/05/01 10:50:29;;;;;;;;;;;9.80;99.90;;;;;;5089021;28;19995;-71
2021/05/01 10:52:55;;;;;;;;;;;9.80;99.90;;;;;;5093386;28;19947;-71
2021/05/01 10:55:21;;;;;;;;;;;9.90;99.90;;;;;;5093698;28;19947;-72
2021/05/01 10:58:01;;;;;;;;;;;10.00;99.90;;;;;;5092403;28;19908;-72
2021/05/01 11:00:39;;;;;;;;;;;10.10;99.90;;;;;;5093416;28;19943;-70
2021/05/01 11:03:06;;;;;;;;;;;10.30;99.90;;;;;;5093564;28;19908;-70
2021/05/01 11:05:32;;;;;;;;;;;10.40;99.90;;;;;;5093115;28;19912;-71
2021/05/01 11:08:01;;;;;;;;;;;10.50;99.90;;;;;;5092700;28;19961;-70
2021/05/01 11:10:27;;;;;;;;;;;10.50;99.90;;;;;;5093311;28;20419;-70
2021/05/01 11:12:56;;;;;;;;;;;10.50;99.90;;;;;;5093229;28;19912;-71
2021/05/01 11:15:22;;;;;;;;;;;10.60;99.90;;;;;;5092955;28;19908;-71
2021/05/01 11:17:47;;;;;;;;;;;10.70;99.90;;;;;;5092149;28;19915;-70
2021/05/01 11:20:14;;;;;;;;;;;10.60;99.90;;;;;;5088735;28;19909;-71
2021/05/01 11:22:40;;;;;;;;;;;10.60;99.90;;;;;;5092634;28;20358;-70
2021/05/01 11:25:07;;;;;;;;;;;10.60;99.90;;;;;;5093000;28;19985;-70
2021/05/01 11:27:33;;;;;;;;;;;10.60;99.90;;;;;;5092116;28;19908;-70
2021/05/01 11:29:59;;;;;;;;;;;10.60;99.90;;;;;;5092472;28;19908;-71
2021/05/01 11:32:26;;;;;;;;;;;10.70;99.90;;;;;;5092887;28;19915;-70
2021/05/01 11:34:59;;;;;;;;;;;10.80;99.90;;;;;;5092858;28;19990;-71
2021/05/01 11:37:26;;;;;;;;;;;10.90;99.90;;;;;;5091437;28;19916;-71
2021/05/01 11:39:51;;;;;;;;;;;10.80;99.90;;;;;;5092629;28;20376;-71
2021/05/01 11:42:21;;;;;;;;;;;10.80;99.90;;;;;;5092556;28;19912;-70
2021/05/01 11:44:47;;;;;;;;;;;10.90;99.90;;;;;;5092323;28;19918;-70
2021/05/01 11:47:14;;;;;;;;;;;11.00;99.90;;;;;;5090497;28;19915;-70
2021/05/01 11:49:40;;;;;;;;;;;11.10;99.90;;;;;;5092445;28;19908;-70
2021/05/01 11:52:08;;;;;;;;;;;11.10;99.90;;;;;;5084671;28;19908;-71
2021/05/01 11:54:52;;;;;;;;;;;11.10;99.90;;;;;;5102337;28;19954;-71
2021/05/01 11:57:41;;;;;;;;;;;11.10;99.90;;;;;;5111732;28;20011;-71
2021/05/01 12:00:07;;;;;;;;;;;11.30;99.90;;;;;;5100663;28;19912;-70
2021/05/01 12:02:37;;;;;;;;;;;11.30;99.90;;;;;;5112845;28;19907;-70
2021/05/01 12:05:02;;;;;;;;;;;11.40;99.90;;;;;;5112423;28;19912;-71
2021/05/01 12:07:38;;;;;;;;;;;11.50;99.90;;;;;;5111589;28;20273;-71
2021/05/01 12:10:05;;;;;;;;;;;11.50;99.90;;;;;;5112437;28;19990;-71
2021/05/01 12:12:32;;;;;;;;;;;11.50;99.90;;;;;;5112329;28;19964;-71
2021/05/01 12:15:02;;;;;;;;;;;11.40;99.90;;;;;;5112478;28;19915;-71
2021/05/01 12:17:31;;;;;;;;;;;11.40;99.90;;;;;;5111489;28;20016;-71
2021/05/01 12:20:04;;;;;;;;;;;11.60;99.90;;;;;;5112189;28;19930;-70
2021/05/01 12:22:30;;;;;;;;;;;11.60;99.90;;;;;;5105175;28;19913;-71
2021/05/01 12:24:56;;;;;;;;;;;11.80;99.90;;;;;;5091624;28;19912;-70
2021/05/01 12:27:40;;;;;;;;;;;11.80;99.90;;;;;;5090851;28;19923;-71
2021/05/01 12:30:06;;;;;;;;;;;11.80;99.90;;;;;;5091417;28;19912;-71
2021/05/01 12:32:32;;;;;;;;;;;11.60;99.90;;;;;;5091865;28;19931;-71
2021/05/01 12:34:58;;;;;;;;;;;11.50;99.90;;;;;;5091523;28;19943;-71
2021/05/01 12:37:25;;;;;;;;;;;11.40;99.90;;;;;;5090587;28;19916;-70
2021/05/01 12:39:51;;;;;;;;;;;11.20;99.90;;;;;;5091455;28;20277;-71
2021/05/01 12:42:28;;;;;;;;;;;11.10;99.90;;;;;;5091606;28;19974;-71
2021/05/01 12:44:54;;;;;;;;;;;11.00;99.90;;;;;;5089857;28;19912;-71
2021/05/01 12:47:55;;;;;;;;;;;10.90;99.90;;;;;;5089334;28;19914;-70
2021/05/01 12:50:24;;;;;;;;;;;10.80;99.90;;;;;;5047937;28;19916;-70
2021/05/01 12:52:50;;;;;;;;;;;10.70;99.90;;;;;;5081669;28;19908;-71
2021/05/01 12:55:16;;;;;;;;;;;10.70;99.90;;;;;;5091615;28;20316;-70
2021/05/01 12:57:42;;;;;;;;;;;10.60;99.90;;;;;;5090412;28;20053;-70
2021/05/01 13:00:23;;;;;;;;;;;10.50;99.90;;;;;;5091126;28;19943;-71
2021/05/01 13:03:03;;;;;;;;;;;10.40;99.90;;;;;;5091059;28;19943;-70
2021/05/01 13:05:29;;;;;;;;;;;10.30;99.90;;;;;;5091274;28;19912;-71
2021/05/01 13:07:54;;;;;;;;;;;10.30;99.90;;;;;;5090223;28;19908;-71
2021/05/01 13:10:21;;;;;;;;;;;10.30;99.90;;;;;;5091375;28;19915;-71
2021/05/01 13:12:50;;;;;;;;;;;10.30;99.90;;;;;;5091049;28;19908;-71
2021/05/01 13:15:16;;;;;;;;;;;10.30;99.90;;;;;;5090905;28;19919;-71
2021/05/01 13:17:42;;;;;;;;;;;10.30;99.90;;;;;;5090128;28;19908;-71
2021/05/01 13:20:10;;;;;;;;;;;10.30;99.90;;;;;;5091082;28;19923;-71
2021/05/01 13:22:36;;;;;;;;;;;10.20;99.90;;;;;;5089297;28;19915;-71
2021/05/01 13:25:03;;;;;;;;;;;10.10;99.90;;;;;;5090884;28;19916;-70
2021/05/01 13:27:30;;;;;;;;;;;10.10;99.90;;;;;;5090091;28;19940;-71
2021/05/01 13:29:59;;;;;;;;;;;10.00;99.90;;;;;;5090572;28;19959;-71
2021/05/01 13:32:25;;;;;;;;;;;10.00;99.90;;;;;;5090915;28;20291;-72
2021/05/01 13:34:56;;;;;;;;;;;9.90;99.90;;;;;;5090960;28;19934;-71
2021/05/01 13:37:23;;;;;;;;;;;9.90;99.90;;;;;;5088631;28;19916;-71
2021/05/01 13:39:49;;;;;;;;;;;9.90;99.90;;;;;;5090923;28;19908;-72
2021/05/01 13:42:15;;;;;;;;;;;9.90;99.90;;;;;;5090968;28;19912;-71
2021/05/01 13:44:42;;;;;;;;;;;9.90;99.90;;;;;;5090473;28;19912;-71
2021/05/01 13:47:26;;;;;;;;;;;9.80;99.90;;;;;;5089796;28;19915;-71
2021/05/01 13:50:06;;;;;;;;;;;9.80;99.90;;;;;;5090477;28;19908;-71
2021/05/01 13:52:37;;;;;;;;;;;9.80;99.90;;;;;;5089041;28;19912;-71
2021/05/01 13:55:21;;;;;;;;;;;9.90;99.90;;;;;;5090728;28;20387;-71
2021/05/01 13:57:48;;;;;;;;;;;9.80;99.90;;;;;;5090072;28;19931;-71
2021/05/01 14:00:15;;;;;;;;;;;9.80;99.90;;;;;;5090558;28;19908;-71
2021/05/01 14:02:42;;;;;;;;;;;9.80;99.90;;;;;;5093941;28;20335;-71
2021/05/01 14:05:08;;;;;;;;;;;9.90;99.90;;;;;;5094416;28;19958;-71
2021/05/01 14:07:34;;;;;;;;;;;9.90;99.90;;;;;;5093310;28;20147;-71
2021/05/01 14:10:00;;;;;;;;;;;9.90;99.90;;;;;;5094511;28;19916;-71
2021/05/01 14:12:29;;;;;;;;;;;9.80;99.90;;;;;;5093112;28;19908;-71
2021/05/01 14:14:55;;;;;;;;;;;9.80;99.90;;;;;;5094063;28;19961;-70
2021/05/01 14:17:25;;;;;;;;;;;9.70;99.90;;;;;;5093201;28;20273;-71
2021/05/01 14:19:57;;;;;;;;;;;9.70;99.90;;;;;;5094005;28;19909;-71
2021/05/01 14:22:22;;;;;;;;;;;9.70;99.90;;;;;;5092329;28;19908;-71
2021/05/01 14:24:49;;;;;;;;;;;9.70;99.90;;;;;;5093583;28;19916;-71
2021/05/01 14:27:14;;;;;;;;;;;9.60;99.90;;;;;;5092680;28;19912;-71